Time;durP1;ratioP1;P1;durP2;ratioP2;P2;SDS_P1;SDS_P2;PMS_P1;PMS_P2;Temp;Humidity;BMP_temperature;BMP_pressure;BME280_temperature;BME280_humidity;BME280_pressure;Samples;Min_cycle;Max_cycle;Signal;HPM_P1;HPM_P2
2024/04/05 00:00:07;;;;;;;1999.90;999.90;;;15.00;94.50;;;;;;6127481;23;20222;-79
2024/04/05 00:02:33;;;;;;;1999.90;872.37;;;15.00;94.50;;;;;;6101352;23;20263;-79
2024/04/05 00:04:59;;;;;;;1999.90;999.90;;;15.00;94.60;;;;;;6102017;23;20160;-79
2024/04/05 00:07:24;;;;;;;1999.90;999.37;;;15.00;94.70;;;;;;6110421;23;20168;-79
2024/04/05 00:09:50;;;;;;;1999.90;999.90;;;15.00;95.00;;;;;;6108823;23;20172;-79
2024/04/05 00:12:16;;;;;;;1999.90;999.90;;;15.00;94.80;;;;;;6101042;23;20183;-79
2024/04/05 00:14:41;;;;;;;1999.90;999.90;;;15.00;94.90;;;;;;6101666;23;20645;-79
2024/04/05 00:17:07;;;;;;;1999.90;999.90;;;15.00;94.90;;;;;;6100415;23;20160;-79
2024/04/05 00:19:33;;;;;;;1999.90;999.90;;;15.00;95.00;;;;;;6127421;23;20620;-79
2024/04/05 00:21:58;;;;;;;1999.90;999.90;;;15.00;95.10;;;;;;6096457;23;20198;-79
2024/04/05 00:24:24;;;;;;;1999.90;999.90;;;15.00;95.10;;;;;;6096102;23;20207;-79
2024/04/05 00:26:50;;;;;;;1999.90;999.90;;;15.00;95.10;;;;;;6095097;23;20167;-79
2024/04/05 00:29:15;;;;;;;1999.90;999.90;;;15.10;95.10;;;;;;6095793;23;20169;-79
2024/04/05 00:31:41;;;;;;;1999.90;999.90;;;15.10;95.00;;;;;;6095985;23;20185;-79
2024/04/05 00:34:06;;;;;;;1999.90;999.90;;;15.10;95.00;;;;;;6095835;23;20193;-79
2024/04/05 00:36:32;;;;;;;1999.90;999.90;;;15.10;94.90;;;;;;6094994;23;20183;-79
2024/04/05 00:38:58;;;;;;;1999.90;999.90;;;15.10;94.90;;;;;;6095988;23;20216;-79
2024/04/05 00:41:23;;;;;;;1999.90;999.90;;;15.10;94.90;;;;;;6095794;23;20644;-79
2024/04/05 00:43:49;;;;;;;1999.90;999.90;;;15.10;94.90;;;;;;6095893;23;20165;-79
2024/04/05 00:46:15;;;;;;;1999.90;999.90;;;15.00;94.90;;;;;;6096655;23;20156;-79
2024/04/05 00:48:41;;;;;;;1999.90;999.90;;;15.00;95.00;;;;;;6095647;23;20487;-79
2024/04/05 00:51:07;;;;;;;1999.90;999.90;;;15.00;95.00;;;;;;6095713;23;20212;-78
2024/04/05 00:53:33;;;;;;;1999.90;981.53;;;15.00;95.00;;;;;;6095887;23;20180;-79
2024/04/05 00:56:02;;;;;;;1999.90;906.43;;;15.00;95.00;;;;;;6096506;23;20192;-79
2024/04/05 00:58:27;;;;;;;1999.90;951.67;;;15.00;95.10;;;;;;6095803;23;20212;-79
2024/04/05 01:00:54;;;;;;;1999.90;999.90;;;15.00;95.10;;;;;;6096022;23;20524;-79
2024/04/05 01:03:20;;;;;;;1999.90;980.83;;;15.00;95.10;;;;;;6096048;23;20192;-79
2024/04/05 01:05:49;;;;;;;1999.90;965.37;;;15.00;95.10;;;;;;6095635;23;20247;-79
2024/04/05 01:08:16;;;;;;;1999.90;973.23;;;15.00;95.10;;;;;;6095011;23;20164;-79
2024/04/05 01:10:42;;;;;;;1999.90;987.03;;;15.00;95.00;;;;;;6095856;23;20165;-79
2024/04/05 01:13:10;;;;;;;1999.90;999.90;;;15.00;95.00;;;;;;6096761;23;20252;-79
2024/04/05 01:15:36;;;;;;;1999.90;999.90;;;14.90;95.10;;;;;;6097104;23;20219;-79
2024/04/05 01:18:04;;;;;;;1999.90;961.67;;;15.00;95.10;;;;;;6094829;23;20168;-79
2024/04/05 01:20:31;;;;;;;1999.90;949.93;;;15.00;95.00;;;;;;6095330;23;20157;-79
2024/04/05 01:23:05;;;;;;;1999.90;996.60;;;15.00;95.10;;;;;;6097172;23;20200;-78
2024/04/05 01:25:31;;;;;;;1999.90;985.43;;;14.90;95.10;;;;;;6099786;23;20173;-79
2024/04/05 01:27:57;;;;;;;1999.90;999.90;;;15.00;95.20;;;;;;6096945;23;20160;-78
2024/04/05 01:30:23;;;;;;;1999.90;981.90;;;15.00;95.20;;;;;;6099207;23;20229;-79
2024/04/05 01:32:57;;;;;;;1999.90;999.90;;;15.00;95.20;;;;;;6099039;23;20212;-79
2024/04/05 01:35:23;;;;;;;1999.90;999.90;;;15.00;95.20;;;;;;6099484;23;20228;-78
2024/04/05 01:37:48;;;;;;;1999.90;999.90;;;15.00;95.20;;;;;;6096446;23;20605;-78
2024/04/05 01:40:14;;;;;;;1999.90;952.53;;;15.00;95.20;;;;;;6099006;23;20518;-78
2024/04/05 01:42:40;;;;;;;1999.90;999.90;;;15.00;95.10;;;;;;6098191;23;20520;-79
2024/04/05 01:45:05;;;;;;;1999.90;999.90;;;15.10;95.20;;;;;;6098674;23;20528;-78
2024/04/05 01:47:31;;;;;;;1999.90;999.90;;;15.10;95.10;;;;;;6097756;23;20171;-80
2024/04/05 01:49:57;;;;;;;1999.90;983.83;;;15.10;95.20;;;;;;6097693;23;20161;-78
2024/04/05 01:52:23;;;;;;;1999.90;999.90;;;15.00;95.20;;;;;;6098631;23;20184;-78
2024/04/05 01:54:49;;;;;;;1999.90;999.90;;;15.10;95.20;;;;;;6099316;23;20487;-78
2024/04/05 01:57:15;;;;;;;1999.90;999.90;;;15.00;95.20;;;;;;6097848;23;20160;-79
2024/04/05 01:59:49;;;;;;;1999.90;832.93;;;15.10;95.50;;;;;;6096982;23;20161;-79
2024/04/05 02:02:14;;;;;;;1999.90;999.90;;;15.10;95.30;;;;;;6099420;23;20626;-78
2024/04/05 02:04:40;;;;;;;1999.90;996.67;;;15.00;95.30;;;;;;6099096;23;20144;-79
2024/04/05 02:07:06;;;;;;;1999.90;988.87;;;15.00;95.30;;;;;;6098190;23;20158;-78
2024/04/05 02:09:32;;;;;;;1999.90;999.90;;;15.00;95.30;;;;;;6099051;23;20251;-78
2024/04/05 02:11:59;;;;;;;1999.90;999.90;;;15.00;95.30;;;;;;6100574;23;20169;-79
2024/04/05 02:14:25;;;;;;;1999.90;966.53;;;15.00;95.20;;;;;;6100583;23;20183;-78
2024/04/05 02:16:51;;;;;;;1999.90;845.80;;;15.10;95.20;;;;;;6099880;23;20156;-79
2024/04/05 02:19:17;;;;;;;1999.90;999.77;;;15.10;95.30;;;;;;6100883;23;20172;-78
2024/04/05 02:21:42;;;;;;;1999.90;999.90;;;15.00;95.30;;;;;;6099101;23;20247;-79
2024/04/05 02:24:08;;;;;;;1999.90;924.27;;;15.00;95.30;;;;;;6099092;23;20163;-79
2024/04/05 02:26:34;;;;;;;1999.90;963.10;;;15.00;95.30;;;;;;6097890;23;20164;-78
2024/04/05 02:28:59;;;;;;;1999.90;966.60;;;15.00;95.20;;;;;;6098774;23;20161;-79
2024/04/05 02:31:25;;;;;;;1999.90;940.70;;;15.00;95.20;;;;;;6099068;23;20189;-78
2024/04/05 02:33:51;;;;;;;1999.90;922.50;;;15.00;95.30;;;;;;6100440;23;20190;-79
2024/04/05 02:36:16;;;;;;;1999.90;960.47;;;15.00;95.30;;;;;;6099579;23;20228;-78
2024/04/05 02:38:42;;;;;;;1999.90;999.90;;;15.00;95.30;;;;;;6099203;23;20541;-78
2024/04/05 02:41:08;;;;;;;1999.90;750.40;;;14.90;95.30;;;;;;6100547;23;20182;-79
2024/04/05 02:43:33;;;;;;;1999.90;913.27;;;14.90;95.30;;;;;;6100832;23;20602;-78
2024/04/05 02:46:00;;;;;;;1999.90;957.00;;;14.80;95.30;;;;;;6099839;23;20195;-78
2024/04/05 02:48:25;;;;;;;1999.90;892.50;;;14.80;95.30;;;;;;6100755;23;20219;-78
2024/04/05 02:50:51;;;;;;;1999.90;912.40;;;14.80;95.30;;;;;;6100679;23;20191;-79
2024/04/05 02:53:16;;;;;;;1999.90;873.63;;;14.80;95.30;;;;;;6098800;23;20190;-79
2024/04/05 02:55:42;;;;;;;1999.90;927.73;;;14.70;95.30;;;;;;6098759;23;20163;-79
2024/04/05 02:58:09;;;;;;;1999.90;896.83;;;14.70;95.30;;;;;;6099875;23;20176;-79
2024/04/05 03:00:39;;;;;;;1999.90;916.33;;;14.70;95.40;;;;;;6100846;23;20153;-79
2024/04/05 03:03:05;;;;;;;1999.90;977.97;;;14.60;95.40;;;;;;6100465;23;20257;-78
2024/04/05 03:05:31;;;;;;;1999.90;999.90;;;14.60;95.40;;;;;;6101135;23;20152;-79
2024/04/05 03:07:57;;;;;;;1999.90;999.90;;;14.60;95.50;;;;;;6100327;23;20153;-79
2024/04/05 03:10:22;;;;;;;1999.90;999.90;;;14.60;95.50;;;;;;6101282;23;20154;-78
2024/04/05 03:12:52;;;;;;;1999.90;999.90;;;14.70;95.50;;;;;;6099215;23;20252;-79
2024/04/05 03:15:18;;;;;;;1999.90;999.90;;;14.70;95.50;;;;;;6101119;23;20152;-79
2024/04/05 03:17:43;;;;;;;1999.90;999.90;;;14.70;95.40;;;;;;6098055;23;20500;-78
2024/04/05 03:20:12;;;;;;;1999.90;999.90;;;14.70;95.40;;;;;;6101310;23;20225;-79
2024/04/05 03:22:39;;;;;;;1999.90;999.90;;;14.70;95.30;;;;;;6098851;23;20231;-78
2024/04/05 03:25:05;;;;;;;1999.90;999.90;;;14.70;95.30;;;;;;6099445;23;20160;-79
2024/04/05 03:27:31;;;;;;;1999.90;999.90;;;14.70;95.30;;;;;;6098911;23;20167;-78
2024/04/05 03:29:56;;;;;;;1999.90;999.90;;;14.70;95.30;;;;;;6099170;23;20162;-79
2024/04/05 03:32:22;;;;;;;1999.90;986.33;;;14.70;95.30;;;;;;6100587;23;20176;-79
2024/04/05 03:34:48;;;;;;;1999.90;999.90;;;14.70;95.20;;;;;;6099154;23;20163;-79
2024/04/05 03:37:13;;;;;;;1999.90;999.90;;;14.70;95.20;;;;;;6098696;23;20164;-79
2024/04/05 03:39:39;;;;;;;1999.90;999.90;;;14.60;95.20;;;;;;6099538;23;20271;-79
2024/04/05 03:42:05;;;;;;;1999.90;999.90;;;14.60;95.30;;;;;;6101011;23;20175;-79
2024/04/05 03:44:31;;;;;;;1999.90;999.90;;;14.60;95.20;;;;;;6099183;23;20187;-79
2024/04/05 03:46:56;;;;;;;1999.90;999.90;;;14.70;95.30;;;;;;6100182;23;20230;-79
2024/04/05 03:49:22;;;;;;;1999.90;999.90;;;14.70;95.30;;;;;;6099104;23;20502;-79
2024/04/05 03:51:48;;;;;;;1999.90;999.90;;;14.70;95.30;;;;;;6101063;23;20172;-78
2024/04/05 03:54:14;;;;;;;1999.90;999.90;;;14.70;95.30;;;;;;6101670;23;20641;-79
2024/04/05 03:56:39;;;;;;;1999.90;999.90;;;14.80;95.30;;;;;;6099674;23;20160;-79
2024/04/05 03:59:05;;;;;;;1999.90;999.90;;;14.80;95.20;;;;;;6100800;23;20573;-79
2024/04/05 04:01:31;;;;;;;1999.90;999.90;;;14.80;95.20;;;;;;6098993;23;20207;-79
2024/04/05 04:03:57;;;;;;;1999.90;999.90;;;14.80;95.20;;;;;;6100600;23;20161;-79
2024/04/05 04:06:22;;;;;;;1999.90;999.90;;;14.90;95.20;;;;;;6100445;23;20156;-79
2024/04/05 04:08:48;;;;;;;1999.90;999.90;;;14.90;95.40;;;;;;6100505;23;20700;-79
2024/04/05 04:11:14;;;;;;;1999.90;999.90;;;15.00;95.10;;;;;;6101019;23;20176;-79
2024/04/05 04:13:40;;;;;;;1999.90;999.90;;;15.00;95.10;;;;;;6101012;23;20183;-79
2024/04/05 04:16:05;;;;;;;1999.90;999.90;;;14.90;95.00;;;;;;6097888;23;20164;-79
2024/04/05 04:18:31;;;;;;;1999.90;999.90;;;14.90;95.10;;;;;;6098492;23;20156;-79
2024/04/05 04:20:57;;;;;;;1999.90;999.90;;;14.80;95.10;;;;;;6102994;23;20203;-78
2024/04/05 04:23:23;;;;;;;1999.90;999.90;;;14.80;95.10;;;;;;6129674;23;20152;-79
2024/04/05 04:25:50;;;;;;;1999.90;999.90;;;14.80;95.00;;;;;;6129438;23;20240;-79
2024/04/05 04:28:19;;;;;;;1999.90;999.90;;;14.80;95.30;;;;;;6129307;23;20194;-79
2024/04/05 04:30:45;;;;;;;1999.90;999.90;;;14.80;95.00;;;;;;6103424;23;20497;-78
2024/04/05 04:33:13;;;;;;;1999.90;876.80;;;14.70;94.90;;;;;;6129448;23;20640;-79
2024/04/05 04:35:39;;;;;;;1999.90;990.20;;;14.70;94.90;;;;;;6128227;23;20161;-78
2024/04/05 04:38:04;;;;;;;1999.90;999.90;;;14.60;94.90;;;;;;6128953;23;20543;-78
2024/04/05 04:40:30;;;;;;;1999.90;972.63;;;14.60;95.00;;;;;;6130007;23;20148;-79
2024/04/05 04:42:56;;;;;;;1999.90;917.73;;;14.60;95.00;;;;;;6130214;23;20512;-79
2024/04/05 04:45:21;;;;;;;1999.90;885.40;;;14.60;94.90;;;;;;6130571;23;20166;-79
2024/04/05 04:47:47;;;;;;;1999.90;742.53;;;14.50;94.90;;;;;;6129213;23;20156;-79
2024/04/05 04:50:13;;;;;;;1999.90;821.53;;;14.40;95.00;;;;;;6130470;23;20159;-79
2024/04/05 04:52:39;;;;;;;1999.90;799.53;;;14.30;95.00;;;;;;6130022;23;20231;-79
2024/04/05 04:55:05;;;;;;;1999.90;948.57;;;14.20;95.10;;;;;;6104151;23;20182;-79
2024/04/05 04:57:32;;;;;;;1999.90;947.97;;;14.20;95.20;;;;;;6129499;23;20148;-79
2024/04/05 04:59:58;;;;;;;1999.90;912.17;;;14.20;95.20;;;;;;6104632;23;20160;-79
2024/04/05 05:02:24;;;;;;;1999.90;941.40;;;14.20;95.20;;;;;;6130199;23;20223;-78
2024/04/05 05:04:49;;;;;;;1999.90;999.47;;;14.20;95.20;;;;;;6104783;23;20172;-79
2024/04/05 05:07:15;;;;;;;1999.90;999.90;;;14.20;95.20;;;;;;6128072;23;20213;-80
2024/04/05 05:09:41;;;;;;;1999.90;989.57;;;14.20;95.20;;;;;;6105973;23;20541;-79
2024/04/05 05:12:06;;;;;;;1999.90;999.90;;;14.30;95.10;;;;;;6131883;23;20178;-79
2024/04/05 05:14:32;;;;;;;1999.90;848.87;;;14.30;95.10;;;;;;6130405;23;20643;-79
2024/04/05 05:16:58;;;;;;;1999.90;909.57;;;14.20;95.00;;;;;;6106055;23;20209;-79
2024/04/05 05:19:23;;;;;;;1999.90;830.23;;;14.20;95.00;;;;;;6108663;23;20156;-80
2024/04/05 05:21:49;;;;;;;1999.90;830.63;;;14.20;94.90;;;;;;6104159;23;20196;-80
2024/04/05 05:24:15;;;;;;;1999.90;831.37;;;14.20;94.90;;;;;;6106212;23;20406;-80
2024/04/05 05:26:40;;;;;;;1999.90;807.27;;;14.10;94.90;;;;;;6100964;23;20198;-80
2024/04/05 05:29:06;;;;;;;1999.90;892.67;;;14.10;94.90;;;;;;6103496;23;20215;-80
2024/04/05 05:31:32;;;;;;;1999.90;941.00;;;14.10;94.80;;;;;;6105310;23;20514;-80
2024/04/05 05:33:58;;;;;;;1999.90;758.33;;;14.10;94.80;;;;;;6105343;23;20183;-79
2024/04/05 05:36:23;;;;;;;1999.90;865.57;;;14.10;94.80;;;;;;6102498;23;20573;-79
2024/04/05 05:38:49;;;;;;;1999.90;899.77;;;14.20;94.80;;;;;;6102082;23;20464;-79
2024/04/05 05:41:15;;;;;;;1999.90;940.60;;;14.20;94.70;;;;;;6100559;23;20175;-79
2024/04/05 05:43:41;;;;;;;1999.90;980.20;;;14.10;94.70;;;;;;6101887;23;20170;-79
2024/04/05 05:46:06;;;;;;;1999.90;999.90;;;14.10;94.80;;;;;;6103963;23;20226;-80
2024/04/05 05:48:32;;;;;;;1999.90;882.80;;;14.10;94.80;;;;;;6103854;23;20219;-80
2024/04/05 05:50:58;;;;;;;1999.90;999.90;;;14.10;94.90;;;;;;6105251;23;20224;-80
2024/04/05 05:53:23;;;;;;;1999.90;999.90;;;14.10;95.00;;;;;;6103328;23;20187;-80
2024/04/05 05:55:50;;;;;;;1999.90;999.90;;;14.20;95.10;;;;;;6103812;23;20160;-80
2024/04/05 05:58:16;;;;;;;1999.90;999.90;;;14.30;95.10;;;;;;6104651;23;20242;-80
2024/04/05 06:00:42;;;;;;;1999.90;999.90;;;14.40;95.20;;;;;;6105102;23;20156;-80
2024/04/05 06:03:08;;;;;;;1999.90;999.90;;;14.60;95.30;;;;;;6103608;23;20180;-80
2024/04/05 06:05:33;;;;;;;1999.90;999.90;;;14.80;95.30;;;;;;6105456;23;20156;-80
2024/04/05 06:08:00;;;;;;;1999.90;999.90;;;15.00;95.30;;;;;;6101893;23;20548;-78
2024/04/05 06:10:25;;;;;;;1999.90;999.90;;;15.20;95.30;;;;;;6099875;23;20176;-79
2024/04/05 06:12:51;;;;;;;1999.90;999.90;;;15.40;95.30;;;;;;6101534;23;20185;-79
2024/04/05 06:15:17;;;;;;;1999.90;999.90;;;15.60;95.20;;;;;;6103582;23;20191;-79
2024/04/05 06:17:46;;;;;;;1999.90;999.90;;;15.80;95.20;;;;;;6099991;23;20794;-80
2024/04/05 06:20:12;;;;;;;1999.90;999.90;;;15.90;95.10;;;;;;6100680;23;20220;-80
2024/04/05 06:22:38;;;;;;;1999.90;999.90;;;16.10;95.00;;;;;;6101008;23;20252;-80
2024/04/05 06:25:04;;;;;;;1999.90;999.90;;;16.10;94.90;;;;;;6102887;23;20166;-80
2024/04/05 06:27:31;;;;;;;1999.90;999.90;;;16.20;94.90;;;;;;6101922;23;20150;-80
2024/04/05 06:29:57;;;;;;;1999.90;999.90;;;16.20;94.90;;;;;;6100724;23;20158;-80
2024/04/05 06:32:23;;;;;;;1999.90;999.90;;;16.20;94.80;;;;;;6102420;23;20181;-80
2024/04/05 06:34:52;;;;;;;1999.90;999.90;;;16.30;94.90;;;;;;6100975;23;20169;-80
2024/04/05 06:37:17;;;;;;;1999.90;999.90;;;16.30;94.80;;;;;;6101280;23;20154;-80
2024/04/05 06:39:43;;;;;;;1999.90;999.90;;;16.30;94.80;;;;;;6101766;23;20600;-80
2024/04/05 06:42:10;;;;;;;1999.90;999.90;;;16.30;94.80;;;;;;6099839;23;20186;-80
2024/04/05 06:44:37;;;;;;;1999.90;999.90;;;16.40;94.80;;;;;;6102275;23;20150;-80
2024/04/05 06:47:09;;;;;;;1999.90;999.90;;;16.40;94.80;;;;;;6099441;23;20163;-80
2024/04/05 06:49:37;;;;;;;1999.90;845.70;;;16.50;94.70;;;;;;6100216;23;20158;-80
2024/04/05 06:52:07;;;;;;;1999.90;821.50;;;16.50;94.70;;;;;;6099547;23;20191;-80
2024/04/05 06:54:34;;;;;;;1999.90;806.57;;;16.50;94.60;;;;;;6102851;23;20506;-80
2024/04/05 06:57:00;;;;;;;1999.90;832.60;;;16.60;94.60;;;;;;6100642;23;20154;-79
2024/04/05 06:59:28;;;;;;;1999.90;946.53;;;16.60;94.60;;;;;;6102063;23;20164;-81
2024/04/05 07:01:54;;;;;;;1999.90;868.03;;;16.70;94.60;;;;;;6097261;23;20262;-79
2024/04/05 07:04:23;;;;;;;1999.90;677.37;;;16.70;94.50;;;;;;6102333;23;20154;-79
2024/04/05 07:06:50;;;;;;;1999.90;574.47;;;16.90;94.40;;;;;;6099138;23;20191;-80
2024/04/05 07:09:20;;;;;;;1999.90;558.93;;;16.90;94.20;;;;;;6100798;23;20156;-80
2024/04/05 07:11:46;;;;;;;1999.90;569.87;;;16.90;94.20;;;;;;6100030;23;20180;-79
2024/04/05 07:14:13;;;;;;;1999.90;495.40;;;17.00;94.10;;;;;;6102011;23;20171;-79
2024/04/05 07:16:39;;;;;;;1986.67;484.07;;;17.10;94.10;;;;;;6099327;23;20161;-79
2024/04/05 07:19:05;;;;;;;1999.90;999.90;;;17.20;94.00;;;;;;6099683;23;20160;-80
2024/04/05 07:21:31;;;;;;;959.23;193.17;;;17.20;93.90;;;;;;6099305;23;20194;-79
2024/04/05 07:23:56;;;;;;;1999.90;999.90;;;17.30;93.90;;;;;;6098510;23;20173;-80
2024/04/05 07:26:22;;;;;;;1675.43;363.47;;;17.30;93.80;;;;;;6100391;23;20146;-71
2024/04/05 07:28:49;;;;;;;1762.47;365.53;;;17.40;93.80;;;;;;6124173;23;20222;-71
2024/04/05 07:31:14;;;;;;;1999.90;999.90;;;17.60;93.80;;;;;;6125131;23;20155;-70
2024/04/05 07:33:40;;;;;;;1999.90;999.90;;;17.80;93.60;;;;;;6125375;23;20570;-71
2024/04/05 07:36:06;;;;;;;1999.90;999.90;;;17.90;93.40;;;;;;6098462;23;20159;-70
2024/04/05 07:38:32;;;;;;;1999.90;999.90;;;18.00;93.30;;;;;;6125470;23;20291;-69
2024/04/05 07:41:06;;;;;;;1999.90;999.90;;;18.10;93.10;;;;;;6125582;23;20151;-70
2024/04/05 07:43:32;;;;;;;1999.90;999.90;;;18.10;92.90;;;;;;6125478;23;20149;-70
2024/04/05 07:45:58;;;;;;;1999.90;999.90;;;18.30;92.90;;;;;;6125127;23;20175;-70
2024/04/05 07:48:24;;;;;;;1999.90;999.90;;;18.50;92.70;;;;;;6098924;23;20183;-69
2024/04/05 07:50:49;;;;;;;1999.90;999.90;;;18.70;92.50;;;;;;6125444;23;20214;-72
2024/04/05 07:53:15;;;;;;;1999.90;999.90;;;18.80;92.30;;;;;;6125466;23;20187;-71
2024/04/05 07:55:41;;;;;;;1999.90;999.90;;;19.00;92.20;;;;;;6125811;23;20277;-71
2024/04/05 07:58:06;;;;;;;1999.90;999.90;;;19.10;91.90;;;;;;6123904;23;20746;-70
2024/04/05 08:00:32;;;;;;;1999.90;999.90;;;19.20;91.80;;;;;;6125559;23;20568;-70
2024/04/05 08:02:58;;;;;;;1999.90;999.90;;;19.20;91.60;;;;;;6125653;23;20609;-70
2024/04/05 08:05:23;;;;;;;1999.90;999.90;;;19.30;91.30;;;;;;6124833;23;20151;-70
2024/04/05 08:07:49;;;;;;;1999.90;999.90;;;19.20;91.20;;;;;;6124219;23;20210;-71
2024/04/05 08:10:15;;;;;;;1999.90;999.90;;;19.20;90.90;;;;;;6125488;23;20155;-70
2024/04/05 08:12:40;;;;;;;1999.90;999.90;;;19.20;90.80;;;;;;6125346;23;20146;-70
2024/04/05 08:15:10;;;;;;;1999.90;999.90;;;19.20;90.70;;;;;;6125368;23;20148;-70
2024/04/05 08:17:36;;;;;;;1999.90;999.90;;;19.30;90.50;;;;;;6098143;23;20718;-70
2024/04/05 08:20:02;;;;;;;1999.90;999.90;;;19.30;90.30;;;;;;6125335;23;20163;-70
2024/04/05 08:22:28;;;;;;;1999.90;999.90;;;19.30;90.20;;;;;;6098981;23;20565;-70
2024/04/05 08:24:57;;;;;;;1999.90;999.90;;;19.30;90.00;;;;;;6125159;23;20186;-70
2024/04/05 08:27:22;;;;;;;1999.90;999.90;;;19.30;90.00;;;;;;6123767;23;20651;-70
2024/04/05 08:29:48;;;;;;;1999.90;999.90;;;19.30;89.60;;;;;;6124943;23;20155;-71
2024/04/05 08:32:14;;;;;;;1999.90;999.90;;;19.40;89.40;;;;;;6125138;23;20168;-70
2024/04/05 08:34:42;;;;;;;1999.90;999.90;;;19.50;89.30;;;;;;6125053;23;20185;-70
2024/04/05 08:37:08;;;;;;;1999.90;999.90;;;19.60;89.00;;;;;;6123920;23;20242;-70
2024/04/05 08:39:34;;;;;;;1999.90;999.90;;;19.80;88.50;;;;;;6125129;23;20488;-70
2024/04/05 08:42:15;;;;;;;1999.90;999.90;;;19.90;87.90;;;;;;6098928;23;20232;-70
2024/04/05 08:44:46;;;;;;;1999.90;999.90;;;20.00;87.30;;;;;;6125256;23;20147;-70
2024/04/05 08:47:13;;;;;;;1999.90;999.90;;;20.20;87.00;;;;;;6123799;23;20178;-71
2024/04/05 08:49:39;;;;;;;1999.90;999.90;;;20.30;86.30;;;;;;6099113;23;20161;-71
2024/04/05 08:52:05;;;;;;;1999.90;999.90;;;20.20;86.00;;;;;;6124991;23;20229;-71
2024/04/05 08:54:31;;;;;;;1999.90;999.90;;;20.40;86.40;;;;;;6124782;23;20199;-71
2024/04/05 08:57:00;;;;;;;1999.90;999.90;;;20.70;85.90;;;;;;6097738;23;20180;-71
2024/04/05 08:59:30;;;;;;;1999.90;999.90;;;21.00;85.00;;;;;;6098597;23;20241;-70
2024/04/05 09:02:00;;;;;;;1999.90;999.90;;;21.20;84.50;;;;;;6125048;23;20150;-71
2024/04/05 09:04:27;;;;;;;1999.90;999.90;;;21.50;83.60;;;;;;6124984;23;20472;-71
2024/04/05 09:06:53;;;;;;;1999.90;999.90;;;21.80;82.80;;;;;;6123853;23;20171;-74
2024/04/05 09:09:25;;;;;;;1999.90;999.90;;;22.20;82.10;;;;;;6124564;23;20184;-74
2024/04/05 09:12:09;;;;;;;1999.90;999.90;;;22.40;79.90;;;;;;6124867;23;20166;-73
2024/04/05 09:14:38;;;;;;;1999.90;999.90;;;22.60;79.00;;;;;;6124990;23;20171;-73
2024/04/05 09:17:16;;;;;;;1999.90;999.90;;;22.80;78.70;;;;;;6097600;23;20250;-73
2024/04/05 09:19:42;;;;;;;1999.90;999.90;;;22.90;78.50;;;;;;6124993;23;20150;-74
2024/04/05 09:22:17;;;;;;;1999.90;999.90;;;23.10;78.10;;;;;;6124843;23;20159;-74
2024/04/05 09:24:44;;;;;;;1999.90;999.90;;;23.40;77.50;;;;;;6124860;23;20158;-74
2024/04/05 09:27:10;;;;;;;1999.90;999.90;;;23.70;76.40;;;;;;6123526;23;20183;-74
2024/04/05 09:29:36;;;;;;;1999.90;999.90;;;23.90;74.80;;;;;;6124875;23;20158;-74
2024/04/05 09:32:01;;;;;;;1999.90;999.90;;;23.90;73.90;;;;;;6124859;23;20178;-73
2024/04/05 09:34:29;;;;;;;1999.90;999.90;;;23.80;73.40;;;;;;6124799;23;20222;-73
2024/04/05 09:36:58;;;;;;;1999.90;999.90;;;23.70;73.00;;;;;;6098005;23;20210;-73
2024/04/05 09:39:25;;;;;;;1999.90;999.90;;;23.80;73.00;;;;;;6124582;23;20166;-74
2024/04/05 09:41:55;;;;;;;1999.90;999.90;;;23.80;71.90;;;;;;6124752;23;20154;-74
2024/04/05 09:44:23;;;;;;;1999.90;999.90;;;23.90;72.10;;;;;;6124743;23;20147;-74
2024/04/05 09:46:49;;;;;;;1999.90;999.90;;;24.00;71.70;;;;;;6123726;23;20233;-75
2024/04/05 09:49:14;;;;;;;1999.90;999.90;;;24.20;71.00;;;;;;6124480;23;20498;-74
2024/04/05 09:51:45;;;;;;;1999.90;999.90;;;24.20;70.30;;;;;;6124858;23;20191;-73
2024/04/05 09:54:12;;;;;;;1999.90;999.90;;;24.00;70.40;;;;;;6124415;23;20171;-74
2024/04/05 09:56:40;;;;;;;1999.90;999.90;;;24.30;70.70;;;;;;6123578;23;20182;-74
2024/04/05 09:59:10;;;;;;;1999.90;999.90;;;24.50;69.20;;;;;;6124599;23;20147;-74
2024/04/05 10:01:37;;;;;;;1999.90;999.90;;;24.90;69.40;;;;;;6124902;23;20163;-74
2024/04/05 10:04:04;;;;;;;1999.90;999.90;;;25.00;68.00;;;;;;6124496;23;20258;-74
2024/04/05 10:06:39;;;;;;;1999.90;999.90;;;24.70;68.00;;;;;;6123728;23;20171;-74
2024/04/05 10:09:18;;;;;;;1999.90;999.90;;;24.40;68.70;;;;;;6124459;23;20230;-74
2024/04/05 10:11:45;;;;;;;1999.90;999.90;;;24.30;69.30;;;;;;6124605;23;20649;-74
2024/04/05 10:14:24;;;;;;;1999.90;999.90;;;24.30;69.60;;;;;;6124429;23;20179;-74
2024/04/05 10:16:51;;;;;;;1999.90;999.90;;;24.20;69.20;;;;;;6123712;23;20245;-73
2024/04/05 10:19:18;;;;;;;1999.90;999.90;;;24.30;69.00;;;;;;6124635;23;20175;-73
2024/04/05 10:21:45;;;;;;;1999.90;999.90;;;24.50;68.70;;;;;;6124902;23;20535;-73
2024/04/05 10:24:11;;;;;;;1999.90;999.90;;;24.90;68.20;;;;;;6123991;23;20234;-74
2024/04/05 10:26:39;;;;;;;1999.90;999.90;;;25.30;67.60;;;;;;6123495;23;20207;-74
2024/04/05 10:29:05;;;;;;;1999.90;999.90;;;25.60;67.10;;;;;;6099715;23;20154;-74
2024/04/05 10:31:36;;;;;;;1999.90;999.90;;;25.80;66.80;;;;;;6126629;23;20155;-74
2024/04/05 10:34:03;;;;;;;1999.90;999.90;;;25.90;65.40;;;;;;6100527;23;20178;-74
2024/04/05 10:36:31;;;;;;;1999.90;999.90;;;25.90;65.10;;;;;;6125196;23;20193;-74
2024/04/05 10:38:56;;;;;;;1999.90;999.90;;;25.80;65.00;;;;;;6100291;23;20179;-74
2024/04/05 10:41:22;;;;;;;1999.90;999.90;;;25.80;65.00;;;;;;6126315;23;20543;-74
2024/04/05 10:43:59;;;;;;;1999.90;999.90;;;25.90;65.20;;;;;;6100462;23;20202;-73
2024/04/05 10:46:25;;;;;;;1999.90;999.90;;;26.10;64.50;;;;;;6099690;23;20623;-74
2024/04/05 10:48:58;;;;;;;1999.90;999.90;;;26.00;64.30;;;;;;6126187;23;20174;-74
2024/04/05 10:51:24;;;;;;;1999.90;999.90;;;25.70;65.00;;;;;;6126404;23;20166;-73
2024/04/05 10:53:50;;;;;;;1999.90;999.90;;;25.40;65.30;;;;;;6126261;23;20171;-73
2024/04/05 10:56:15;;;;;;;1999.90;999.90;;;25.10;63.90;;;;;;6125316;23;20155;-73
2024/04/05 10:58:41;;;;;;;1999.90;999.90;;;24.60;63.50;;;;;;6126032;23;20482;-73
2024/04/05 11:01:07;;;;;;;1999.90;999.90;;;24.00;63.00;;;;;;6126198;23;20182;-74
2024/04/05 11:03:33;;;;;;;1999.90;999.90;;;23.50;63.30;;;;;;6126100;23;20237;-74
2024/04/05 11:06:03;;;;;;;1999.90;999.90;;;23.20;64.30;;;;;;6099319;23;20170;-75
2024/04/05 11:08:29;;;;;;;1999.90;999.90;;;22.90;65.00;;;;;;6099976;23;20190;-73
2024/04/05 11:10:55;;;;;;;1999.90;999.90;;;22.80;65.50;;;;;;6126072;23;20155;-73
2024/04/05 11:13:21;;;;;;;1999.90;999.90;;;22.90;66.10;;;;;;6125895;23;20175;-73
2024/04/05 11:15:47;;;;;;;1999.90;999.90;;;23.20;65.90;;;;;;6126200;23;20147;-73
2024/04/05 11:18:13;;;;;;;1999.90;999.90;;;23.60;66.10;;;;;;6124968;23;20175;-73
2024/04/05 11:20:40;;;;;;;1999.90;999.90;;;24.40;65.70;;;;;;6125832;23;20175;-73
2024/04/05 11:23:12;;;;;;;1999.90;999.90;;;25.20;64.00;;;;;;6099918;23;20234;-75
2024/04/05 11:25:37;;;;;;;1999.90;999.90;;;25.50;61.90;;;;;;6099991;23;20232;-73
2024/04/05 11:28:15;;;;;;;1999.90;999.90;;;25.60;60.90;;;;;;6117079;23;20687;-73
2024/04/05 11:30:41;;;;;;;1999.90;999.90;;;25.90;60.60;;;;;;6125954;23;20151;-73
2024/04/05 11:33:07;;;;;;;1999.90;999.90;;;26.30;60.30;;;;;;6125822;23;20174;-74
2024/04/05 11:35:37;;;;;;;1999.90;999.90;;;26.70;59.70;;;;;;6124364;23;20154;-73
2024/04/05 11:38:03;;;;;;;1999.90;999.90;;;27.20;59.40;;;;;;6123266;23;20179;-74
2024/04/05 11:40:29;;;;;;;1999.90;999.90;;;27.50;57.40;;;;;;6125911;23;20170;-74
2024/04/05 11:42:55;;;;;;;1999.90;999.90;;;27.60;56.90;;;;;;6125741;23;20595;-74
2024/04/05 11:45:21;;;;;;;1999.90;999.90;;;27.60;56.50;;;;;;6125724;23;20135;-74
2024/04/05 11:47:49;;;;;;;1999.90;999.90;;;27.80;57.00;;;;;;6123180;23;20229;-74
2024/04/05 11:50:15;;;;;;;1999.90;999.90;;;27.90;57.00;;;;;;6125868;23;20144;-74
2024/04/05 11:52:41;;;;;;;1999.90;999.90;;;27.50;55.90;;;;;;6125822;23;20622;-74
2024/04/05 11:55:08;;;;;;;1999.90;999.90;;;26.90;56.80;;;;;;6125824;23;20189;-74